WZZ2CX LFPO-LHBP
Flight info
| Callsign | WZZ2CX |
|---|---|
| Flight time | 1h 54m |
| Altitude | 35000 |
| Route | BUBLI DCT LUVAL DCT BEGAR DCT TRA DCT GAMSA DCT BIRGI DCT INGID DCT GOTAR DCT SIRDU DCT OGVUN DCT VAJDI |
| Aircraft | A21N/M-SDE1E2E3FGIJ1J4RWXY/LB1 |
Departure
| Time | 2026-05-06 12:50 |
|---|---|
| Airport | Paris-Orly Airport (LFPO) |
Arrival
| Time | 2026-05-06 14:45 |
|---|---|
| Airport | Budapest Liszt Ferenc International Airport (LHBP) |
| Time | Latitude | Longitude | Altitude | Speed | Heading |
|---|---|---|---|---|---|
| 2026-05-06 12:10 | 48.72993 | 2.35706 | 297 ft | 0 kts | 189° |
| 2026-05-06 12:35 | 48.72995 | 2.35707 | 297 ft | 3 kts | 189° |
| 2026-05-06 12:35 | 48.73016 | 2.35714 | 299 ft | 3 kts | 198° |
| 2026-05-06 12:36 | 48.73029 | 2.35720 | 297 ft | 3 kts | 189° |
| 2026-05-06 12:36 | 48.73051 | 2.35714 | 302 ft | 3 kts | 147° |
| 2026-05-06 12:36 | 48.73062 | 2.35695 | 300 ft | 3 kts | 103° |
| 2026-05-06 12:36 | 48.73062 | 2.35668 | 297 ft | 3 kts | 67° |
| 2026-05-06 12:37 | 48.73056 | 2.35650 | 300 ft | 3 kts | 57° |
| 2026-05-06 12:37 | 48.73045 | 2.35624 | 299 ft | 4 kts | 57° |
| 2026-05-06 12:37 | 48.73036 | 2.35604 | 300 ft | 0 kts | 57° |
| 2026-05-06 12:40 | 48.73038 | 2.35607 | 300 ft | 1 kts | 57° |
| 2026-05-06 12:41 | 48.73047 | 2.35623 | 299 ft | 3 kts | 34° |
| 2026-05-06 12:41 | 48.73070 | 2.35619 | 298 ft | 4 kts | 331° |
| 2026-05-06 12:41 | 48.73096 | 2.35586 | 300 ft | 6 kts | 296° |
| 2026-05-06 12:41 | 48.73086 | 2.35522 | 300 ft | 7 kts | 239° |
| 2026-05-06 12:42 | 48.73057 | 2.35452 | 297 ft | 9 kts | 237° |
| 2026-05-06 12:42 | 48.73008 | 2.35388 | 300 ft | 10 kts | 204° |
| 2026-05-06 12:42 | 48.72935 | 2.35350 | 300 ft | 12 kts | 198° |
| 2026-05-06 12:42 | 48.72853 | 2.35309 | 297 ft | 13 kts | 198° |
| 2026-05-06 12:43 | 48.72763 | 2.35263 | 298 ft | 11 kts | 198° |
| 2026-05-06 12:43 | 48.72701 | 2.35257 | 298 ft | 10 kts | 169° |
| 2026-05-06 12:43 | 48.72632 | 2.35284 | 298 ft | 11 kts | 165° |
| 2026-05-06 12:43 | 48.72552 | 2.35317 | 299 ft | 13 kts | 164° |
| 2026-05-06 12:44 | 48.72463 | 2.35355 | 297 ft | 13 kts | 164° |
| 2026-05-06 12:44 | 48.72392 | 2.35306 | 297 ft | 14 kts | 258° |
| 2026-05-06 12:44 | 48.72368 | 2.35158 | 298 ft | 15 kts | 255° |
| 2026-05-06 12:44 | 48.72340 | 2.34997 | 300 ft | 16 kts | 264° |
| 2026-05-06 12:45 | 48.72371 | 2.34826 | 297 ft | 18 kts | 294° |
| 2026-05-06 12:45 | 48.72421 | 2.34652 | 299 ft | 19 kts | 294° |
| 2026-05-06 12:45 | 48.72532 | 2.34274 | 299 ft | 21 kts | 293° |
| 2026-05-06 12:46 | 48.72565 | 2.34088 | 300 ft | 16 kts | 256° |
| 2026-05-06 12:46 | 48.72516 | 2.33930 | 299 ft | 17 kts | 241° |
| 2026-05-06 12:46 | 48.72457 | 2.33765 | 297 ft | 18 kts | 242° |
| 2026-05-06 12:46 | 48.72397 | 2.33590 | 300 ft | 19 kts | 242° |
| 2026-05-06 12:47 | 48.72331 | 2.33407 | 299 ft | 20 kts | 241° |
| 2026-05-06 12:47 | 48.72262 | 2.33214 | 299 ft | 21 kts | 242° |
| 2026-05-06 12:47 | 48.72191 | 2.33012 | 298 ft | 22 kts | 242° |
| 2026-05-06 12:47 | 48.72117 | 2.32802 | 298 ft | 23 kts | 242° |
| 2026-05-06 12:48 | 48.72040 | 2.32582 | 298 ft | 24 kts | 242° |
| 2026-05-06 12:48 | 48.71958 | 2.32354 | 297 ft | 25 kts | 242° |
| 2026-05-06 12:48 | 48.71878 | 2.32129 | 300 ft | 18 kts | 242° |
| 2026-05-06 12:48 | 48.71840 | 2.32023 | 297 ft | 10 kts | 241° |
| 2026-05-06 12:49 | 48.71814 | 2.31912 | 300 ft | 12 kts | 266° |
| 2026-05-06 12:49 | 48.71839 | 2.31787 | 297 ft | 13 kts | 308° |
| 2026-05-06 12:49 | 48.71920 | 2.31715 | 299 ft | 15 kts | 354° |
| 2026-05-06 12:49 | 48.72018 | 2.31760 | 299 ft | 16 kts | 48° |
| 2026-05-06 12:50 | 48.72109 | 2.32013 | 295 ft | 56 kts | 62° |
| 2026-05-06 12:50 | 48.72419 | 2.32878 | 301 ft | 129 kts | 61° |
| 2026-05-06 12:50 | 48.72934 | 2.34300 | 426 ft | 167 kts | 59° |
| 2026-05-06 12:50 | 48.73480 | 2.35852 | 1057 ft | 169 kts | 60° |
| 2026-05-06 12:51 | 48.74024 | 2.37440 | 1767 ft | 171 kts | 58° |
| 2026-05-06 12:51 | 48.74586 | 2.39028 | 2462 ft | 171 kts | 59° |
| 2026-05-06 12:51 | 48.75147 | 2.40617 | 3117 ft | 171 kts | 58° |
| 2026-05-06 12:51 | 48.75721 | 2.42233 | 3652 ft | 182 kts | 59° |
| 2026-05-06 12:52 | 48.76163 | 2.44134 | 4023 ft | 205 kts | 81° |
| 2026-05-06 12:52 | 48.76052 | 2.46371 | 4528 ft | 221 kts | 95° |
| 2026-05-06 12:52 | 48.75841 | 2.48755 | 5004 ft | 239 kts | 95° |
| 2026-05-06 12:52 | 48.75634 | 2.51365 | 5375 ft | 261 kts | 94° |
| 2026-05-06 12:53 | 48.75422 | 2.54233 | 5711 ft | 286 kts | 94° |
| 2026-05-06 12:53 | 48.75141 | 2.57347 | 6026 ft | 311 kts | 99° |
| 2026-05-06 12:53 | 48.74664 | 2.60667 | 6336 ft | 333 kts | 101° |
| 2026-05-06 12:53 | 48.74137 | 2.64194 | 6632 ft | 352 kts | 101° |
| 2026-05-06 12:54 | 48.73592 | 2.67890 | 6993 ft | 366 kts | 101° |
| 2026-05-06 12:54 | 48.73034 | 2.71687 | 7595 ft | 371 kts | 102° |
| 2026-05-06 12:54 | 48.72475 | 2.75524 | 8303 ft | 375 kts | 102° |
| 2026-05-06 12:54 | 48.71907 | 2.79403 | 9024 ft | 379 kts | 102° |
| 2026-05-06 12:55 | 48.71334 | 2.83311 | 9712 ft | 383 kts | 102° |
| 2026-05-06 12:55 | 48.70755 | 2.87262 | 10407 ft | 386 kts | 102° |
| 2026-05-06 12:55 | 48.70168 | 2.91242 | 11094 ft | 389 kts | 102° |
| 2026-05-06 12:55 | 48.69624 | 2.94923 | 11697 ft | 391 kts | 102° |
| 2026-05-06 12:56 | 48.69027 | 2.98948 | 12339 ft | 394 kts | 103° |
| 2026-05-06 12:56 | 48.68427 | 3.03005 | 12998 ft | 395 kts | 103° |
| 2026-05-06 12:56 | 48.67825 | 3.07055 | 13684 ft | 394 kts | 103° |
| 2026-05-06 12:56 | 48.67225 | 3.11095 | 14409 ft | 393 kts | 103° |
| 2026-05-06 12:57 | 48.66623 | 3.15126 | 15115 ft | 393 kts | 103° |
| 2026-05-06 12:57 | 48.66017 | 3.19166 | 15801 ft | 394 kts | 103° |
| 2026-05-06 12:57 | 48.65413 | 3.23213 | 16461 ft | 396 kts | 104° |
| 2026-05-06 12:57 | 48.64804 | 3.27283 | 17095 ft | 398 kts | 104° |
| 2026-05-06 12:58 | 48.64190 | 3.31361 | 17724 ft | 399 kts | 104° |
| 2026-05-06 12:58 | 48.63569 | 3.35454 | 18363 ft | 400 kts | 104° |
| 2026-05-06 12:58 | 48.62944 | 3.39556 | 19011 ft | 400 kts | 104° |
| 2026-05-06 12:58 | 48.62322 | 3.43657 | 19658 ft | 400 kts | 104° |
| 2026-05-06 12:59 | 48.61699 | 3.47741 | 20319 ft | 399 kts | 104° |
| 2026-05-06 12:59 | 48.61075 | 3.51826 | 20964 ft | 398 kts | 104° |
| 2026-05-06 12:59 | 48.60451 | 3.55898 | 21621 ft | 397 kts | 104° |
| 2026-05-06 12:59 | 48.59825 | 3.59957 | 22223 ft | 397 kts | 104° |
| 2026-05-06 13:00 | 48.59200 | 3.64015 | 22828 ft | 396 kts | 103° |
| 2026-05-06 13:00 | 48.58574 | 3.68062 | 23427 ft | 395 kts | 103° |
| 2026-05-06 13:00 | 48.57951 | 3.72096 | 24026 ft | 393 kts | 103° |
| 2026-05-06 13:00 | 48.57327 | 3.76116 | 24541 ft | 394 kts | 103° |
| 2026-05-06 13:01 | 48.56695 | 3.80145 | 24991 ft | 395 kts | 104° |
| 2026-05-06 13:01 | 48.56064 | 3.84193 | 25422 ft | 397 kts | 104° |
| 2026-05-06 13:01 | 48.55429 | 3.88257 | 25845 ft | 399 kts | 104° |
| 2026-05-06 13:01 | 48.54790 | 3.92341 | 26260 ft | 400 kts | 104° |
| 2026-05-06 13:02 | 48.54147 | 3.96436 | 26662 ft | 402 kts | 104° |
| 2026-05-06 13:02 | 48.53498 | 4.00550 | 27076 ft | 403 kts | 105° |
| 2026-05-06 13:02 | 48.52857 | 4.04609 | 27440 ft | 405 kts | 105° |
| 2026-05-06 13:02 | 48.52204 | 4.08748 | 27791 ft | 406 kts | 105° |
| 2026-05-06 13:03 | 48.51548 | 4.12904 | 28150 ft | 408 kts | 105° |
| 2026-05-06 13:03 | 48.50887 | 4.17074 | 28499 ft | 409 kts | 106° |
| 2026-05-06 13:03 | 48.50223 | 4.21251 | 28848 ft | 410 kts | 106° |
| 2026-05-06 13:03 | 48.49556 | 4.25430 | 29177 ft | 411 kts | 106° |
| 2026-05-06 13:04 | 48.48879 | 4.29628 | 29497 ft | 412 kts | 107° |
| 2026-05-06 13:04 | 48.48193 | 4.33829 | 29793 ft | 414 kts | 107° |
| 2026-05-06 13:04 | 48.47503 | 4.38048 | 30089 ft | 415 kts | 107° |
| 2026-05-06 13:04 | 48.46814 | 4.42280 | 30364 ft | 417 kts | 107° |
| 2026-05-06 13:05 | 48.46122 | 4.46534 | 30582 ft | 420 kts | 107° |
| 2026-05-06 13:05 | 48.45421 | 4.50816 | 30776 ft | 423 kts | 107° |
| 2026-05-06 13:05 | 48.44717 | 4.55135 | 30991 ft | 426 kts | 107° |
| 2026-05-06 13:05 | 48.44007 | 4.59482 | 31191 ft | 428 kts | 107° |
| 2026-05-06 13:06 | 48.43301 | 4.63846 | 31411 ft | 430 kts | 107° |
| 2026-05-06 13:06 | 48.42594 | 4.68235 | 31639 ft | 432 kts | 107° |
| 2026-05-06 13:06 | 48.41879 | 4.72632 | 31869 ft | 433 kts | 107° |
| 2026-05-06 13:06 | 48.41156 | 4.77038 | 32090 ft | 434 kts | 107° |
| 2026-05-06 13:07 | 48.40432 | 4.81452 | 32311 ft | 435 kts | 107° |
| 2026-05-06 13:07 | 48.39697 | 4.85882 | 32522 ft | 437 kts | 107° |
| 2026-05-06 13:07 | 48.38957 | 4.90315 | 32734 ft | 438 kts | 107° |
| 2026-05-06 13:07 | 48.38215 | 4.94757 | 32930 ft | 439 kts | 107° |
| 2026-05-06 13:08 | 48.37475 | 4.99214 | 33131 ft | 440 kts | 107° |
| 2026-05-06 13:08 | 48.36730 | 5.03684 | 33322 ft | 441 kts | 108° |
| 2026-05-06 13:08 | 48.35986 | 5.08132 | 33507 ft | 442 kts | 108° |
| 2026-05-06 13:08 | 48.35227 | 5.12640 | 33699 ft | 443 kts | 108° |
| 2026-05-06 13:09 | 48.34466 | 5.17138 | 33859 ft | 444 kts | 108° |
| 2026-05-06 13:09 | 48.33699 | 5.21633 | 34032 ft | 445 kts | 109° |
| 2026-05-06 13:09 | 48.32931 | 5.26143 | 34213 ft | 445 kts | 109° |
| 2026-05-06 13:09 | 48.32163 | 5.30651 | 34360 ft | 446 kts | 109° |
| 2026-05-06 13:10 | 48.31391 | 5.35172 | 34519 ft | 448 kts | 109° |
| 2026-05-06 13:10 | 48.30618 | 5.39698 | 34715 ft | 448 kts | 109° |
| 2026-05-06 13:10 | 48.29846 | 5.44229 | 34883 ft | 448 kts | 109° |
| 2026-05-06 13:11 | 48.28288 | 5.53296 | 34888 ft | 450 kts | 109° |
| 2026-05-06 13:11 | 48.26722 | 5.62323 | 34856 ft | 450 kts | 109° |
| 2026-05-06 13:12 | 48.25128 | 5.71474 | 34844 ft | 451 kts | 110° |
| 2026-05-06 13:12 | 48.23550 | 5.80504 | 34834 ft | 451 kts | 110° |
| 2026-05-06 13:13 | 48.21956 | 5.89600 | 34831 ft | 450 kts | 110° |
| 2026-05-06 13:13 | 48.20343 | 5.98669 | 34831 ft | 450 kts | 110° |
| 2026-05-06 13:14 | 48.18743 | 6.07735 | 34830 ft | 450 kts | 110° |
| 2026-05-06 13:14 | 48.17135 | 6.16802 | 34817 ft | 450 kts | 110° |
| 2026-05-06 13:15 | 48.15514 | 6.25852 | 34816 ft | 450 kts | 110° |
| 2026-05-06 13:15 | 48.13869 | 6.34891 | 34822 ft | 450 kts | 110° |
| 2026-05-06 13:16 | 48.12233 | 6.43921 | 34832 ft | 450 kts | 110° |
| 2026-05-06 13:16 | 48.10589 | 6.52963 | 34831 ft | 450 kts | 111° |
| 2026-05-06 13:17 | 48.08925 | 6.61993 | 34836 ft | 450 kts | 111° |
| 2026-05-06 13:17 | 48.07251 | 6.71022 | 34839 ft | 451 kts | 111° |
| 2026-05-06 13:18 | 48.05585 | 6.80067 | 34838 ft | 452 kts | 110° |
| 2026-05-06 13:18 | 48.03921 | 6.89122 | 34842 ft | 452 kts | 111° |
| 2026-05-06 13:19 | 48.02240 | 6.98119 | 34841 ft | 453 kts | 111° |
| 2026-05-06 13:19 | 48.00531 | 7.07240 | 34814 ft | 453 kts | 111° |
| 2026-05-06 13:20 | 47.99109 | 7.14766 | 34824 ft | 455 kts | 112° |
| 2026-05-06 13:20 | 47.97099 | 7.25388 | 34831 ft | 455 kts | 112° |
| 2026-05-06 13:21 | 47.95365 | 7.34476 | 34830 ft | 455 kts | 112° |
| 2026-05-06 13:21 | 47.93920 | 7.42020 | 34831 ft | 455 kts | 112° |
| 2026-05-06 13:22 | 47.92168 | 7.51103 | 34830 ft | 455 kts | 113° |
| 2026-05-06 13:22 | 47.90354 | 7.60132 | 34833 ft | 453 kts | 117° |
| 2026-05-06 13:23 | 47.88158 | 7.68915 | 34836 ft | 452 kts | 117° |
| 2026-05-06 13:23 | 47.85929 | 7.77672 | 34844 ft | 452 kts | 118° |
| 2026-05-06 13:24 | 47.83696 | 7.86411 | 34842 ft | 451 kts | 118° |
| 2026-05-06 13:24 | 47.81460 | 7.95121 | 34848 ft | 451 kts | 118° |
| 2026-05-06 13:25 | 47.79259 | 8.03786 | 34838 ft | 451 kts | 117° |
| 2026-05-06 13:25 | 47.77040 | 8.12455 | 34841 ft | 451 kts | 118° |
| 2026-05-06 13:26 | 47.74796 | 8.21164 | 34842 ft | 451 kts | 118° |
| 2026-05-06 13:26 | 47.72543 | 8.29860 | 34841 ft | 452 kts | 118° |
| 2026-05-06 13:27 | 47.70262 | 8.38623 | 34836 ft | 451 kts | 118° |
| 2026-05-06 13:27 | 47.68089 | 8.47392 | 34839 ft | 454 kts | 116° |
| 2026-05-06 13:28 | 47.66086 | 8.56294 | 34842 ft | 455 kts | 116° |
| 2026-05-06 13:28 | 47.64076 | 8.65199 | 34837 ft | 455 kts | 116° |
| 2026-05-06 13:29 | 47.62051 | 8.74109 | 34841 ft | 456 kts | 116° |
| 2026-05-06 13:29 | 47.60008 | 8.83021 | 34830 ft | 456 kts | 116° |
| 2026-05-06 13:30 | 47.57962 | 8.91924 | 34819 ft | 457 kts | 116° |
| 2026-05-06 13:30 | 47.55897 | 9.00903 | 34816 ft | 458 kts | 116° |
| 2026-05-06 13:31 | 47.53850 | 9.09766 | 34810 ft | 459 kts | 116° |
| 2026-05-06 13:31 | 47.51759 | 9.18760 | 34806 ft | 459 kts | 117° |
| 2026-05-06 13:32 | 47.49689 | 9.27631 | 34798 ft | 459 kts | 117° |
| 2026-05-06 13:32 | 47.47599 | 9.36540 | 34794 ft | 459 kts | 117° |
| 2026-05-06 13:33 | 47.45487 | 9.45522 | 34795 ft | 460 kts | 117° |
| 2026-05-06 13:33 | 47.43427 | 9.54237 | 34794 ft | 460 kts | 117° |
| 2026-05-06 13:34 | 47.41365 | 9.63181 | 34779 ft | 463 kts | 113° |
| 2026-05-06 13:34 | 47.40775 | 9.67913 | 34784 ft | 475 kts | 102° |
| 2026-05-06 13:34 | 47.40627 | 9.72761 | 34792 ft | 479 kts | 98° |
| 2026-05-06 13:35 | 47.40499 | 9.82605 | 34790 ft | 479 kts | 98° |
| 2026-05-06 13:35 | 47.40328 | 9.92421 | 34793 ft | 478 kts | 98° |
| 2026-05-06 13:36 | 47.40133 | 10.02223 | 34790 ft | 478 kts | 98° |
| 2026-05-06 13:36 | 47.39933 | 10.12043 | 34817 ft | 479 kts | 98° |
| 2026-05-06 13:37 | 47.39723 | 10.21879 | 34803 ft | 480 kts | 98° |
| 2026-05-06 13:37 | 47.39506 | 10.31741 | 34836 ft | 480 kts | 98° |
| 2026-05-06 13:38 | 47.39277 | 10.41580 | 34825 ft | 479 kts | 98° |
| 2026-05-06 13:38 | 47.39041 | 10.51401 | 34832 ft | 480 kts | 99° |
| 2026-05-06 13:39 | 47.38797 | 10.61249 | 34839 ft | 481 kts | 98° |
| 2026-05-06 13:39 | 47.38552 | 10.71048 | 34814 ft | 483 kts | 98° |
| 2026-05-06 13:40 | 47.38290 | 10.80834 | 34797 ft | 482 kts | 99° |
| 2026-05-06 13:40 | 47.38019 | 10.90708 | 34797 ft | 481 kts | 99° |
| 2026-05-06 13:41 | 47.37743 | 11.00576 | 34796 ft | 482 kts | 99° |
| 2026-05-06 13:41 | 47.37449 | 11.10448 | 34782 ft | 482 kts | 99° |
| 2026-05-06 13:42 | 47.37157 | 11.20337 | 34774 ft | 483 kts | 99° |
| 2026-05-06 13:42 | 47.36848 | 11.30231 | 34755 ft | 482 kts | 99° |
| 2026-05-06 13:43 | 47.36539 | 11.40131 | 34745 ft | 484 kts | 99° |
| 2026-05-06 13:43 | 47.36216 | 11.50033 | 34760 ft | 484 kts | 99° |
| 2026-05-06 13:44 | 47.35887 | 11.59940 | 34751 ft | 483 kts | 99° |
| 2026-05-06 13:44 | 47.35545 | 11.69852 | 34762 ft | 484 kts | 99° |
| 2026-05-06 13:45 | 47.35194 | 11.79767 | 34767 ft | 484 kts | 99° |
| 2026-05-06 13:45 | 47.34661 | 11.94634 | 34784 ft | 484 kts | 99° |
| 2026-05-06 13:46 | 47.34270 | 12.04542 | 34790 ft | 485 kts | 99° |
| 2026-05-06 13:46 | 47.33885 | 12.14490 | 34792 ft | 486 kts | 99° |
| 2026-05-06 13:47 | 47.33482 | 12.24419 | 34791 ft | 485 kts | 99° |
| 2026-05-06 13:47 | 47.33076 | 12.34331 | 34795 ft | 484 kts | 99° |
| 2026-05-06 13:48 | 47.32693 | 12.44243 | 34798 ft | 485 kts | 99° |
| 2026-05-06 13:48 | 47.32294 | 12.54164 | 34816 ft | 485 kts | 99° |
| 2026-05-06 13:49 | 47.31851 | 12.64077 | 34801 ft | 484 kts | 99° |
| 2026-05-06 13:49 | 47.31402 | 12.73959 | 34791 ft | 484 kts | 99° |
| 2026-05-06 13:50 | 47.30963 | 12.83862 | 34777 ft | 484 kts | 99° |
| 2026-05-06 13:50 | 47.30504 | 12.93758 | 34767 ft | 484 kts | 99° |
| 2026-05-06 13:51 | 47.30046 | 13.03641 | 34756 ft | 483 kts | 99° |
| 2026-05-06 13:51 | 47.29585 | 13.13539 | 34762 ft | 485 kts | 99° |
| 2026-05-06 13:52 | 47.29128 | 13.23449 | 34775 ft | 485 kts | 99° |
| 2026-05-06 13:52 | 47.28648 | 13.33331 | 35048 ft | 479 kts | 99° |
| 2026-05-06 13:53 | 47.28411 | 13.38179 | 35370 ft | 470 kts | 99° |
| 2026-05-06 13:53 | 47.28175 | 13.42940 | 35628 ft | 463 kts | 99° |
| 2026-05-06 13:53 | 47.27681 | 13.52488 | 35447 ft | 475 kts | 99° |
| 2026-05-06 13:54 | 47.27422 | 13.57389 | 35240 ft | 485 kts | 99° |
| 2026-05-06 13:54 | 47.27159 | 13.62361 | 35031 ft | 488 kts | 99° |
| 2026-05-06 13:54 | 47.26897 | 13.67329 | 34792 ft | 485 kts | 100° |
| 2026-05-06 13:54 | 47.26494 | 13.72238 | 34720 ft | 483 kts | 103° |
| 2026-05-06 13:55 | 47.25562 | 13.81951 | 34764 ft | 484 kts | 103° |
| 2026-05-06 13:55 | 47.24591 | 13.91780 | 34786 ft | 483 kts | 103° |
| 2026-05-06 13:56 | 47.23651 | 14.01590 | 34793 ft | 484 kts | 103° |
| 2026-05-06 13:56 | 47.22697 | 14.11324 | 34809 ft | 484 kts | 103° |
| 2026-05-06 13:57 | 47.21719 | 14.21123 | 34820 ft | 484 kts | 103° |
| 2026-05-06 13:57 | 47.20736 | 14.30911 | 34837 ft | 483 kts | 103° |
| 2026-05-06 13:58 | 47.19756 | 14.40681 | 34835 ft | 482 kts | 103° |
| 2026-05-06 13:58 | 47.18885 | 14.50466 | 34847 ft | 487 kts | 95° |
| 2026-05-06 13:59 | 47.19162 | 14.60466 | 34859 ft | 490 kts | 90° |
| 2026-05-06 13:59 | 47.19517 | 14.70455 | 34851 ft | 489 kts | 90° |
| 2026-05-06 14:00 | 47.19865 | 14.80425 | 34852 ft | 488 kts | 90° |
| 2026-05-06 14:00 | 47.20191 | 14.90393 | 34854 ft | 488 kts | 90° |
| 2026-05-06 14:01 | 47.20500 | 15.00351 | 34845 ft | 487 kts | 90° |
| 2026-05-06 14:01 | 47.20764 | 15.08684 | 34841 ft | 487 kts | 90° |
| 2026-05-06 14:02 | 47.21116 | 15.20251 | 34840 ft | 487 kts | 90° |
| 2026-05-06 14:02 | 47.21359 | 15.28579 | 34841 ft | 487 kts | 90° |
| 2026-05-06 14:03 | 47.21643 | 15.38457 | 34842 ft | 486 kts | 90° |
| 2026-05-06 14:03 | 47.21927 | 15.48451 | 34841 ft | 486 kts | 90° |
| 2026-05-06 14:04 | 47.22184 | 15.58338 | 34839 ft | 486 kts | 90° |
| 2026-05-06 14:04 | 47.22747 | 15.68219 | 34848 ft | 488 kts | 85° |
| 2026-05-06 14:05 | 47.23582 | 15.78075 | 34841 ft | 487 kts | 85° |
| 2026-05-06 14:05 | 47.24400 | 15.88013 | 34838 ft | 487 kts | 85° |
| 2026-05-06 14:06 | 47.25192 | 15.97920 | 34832 ft | 487 kts | 85° |
| 2026-05-06 14:06 | 47.25961 | 16.07818 | 34830 ft | 485 kts | 85° |
| 2026-05-06 14:07 | 47.26726 | 16.17667 | 34835 ft | 485 kts | 85° |
| 2026-05-06 14:07 | 47.27476 | 16.27538 | 34839 ft | 484 kts | 85° |
| 2026-05-06 14:08 | 47.28244 | 16.37393 | 34847 ft | 485 kts | 85° |
| 2026-05-06 14:08 | 47.29001 | 16.47242 | 34841 ft | 484 kts | 85° |
| 2026-05-06 14:09 | 47.29733 | 16.57080 | 34791 ft | 477 kts | 85° |
| 2026-05-06 14:09 | 47.30087 | 16.61900 | 34365 ft | 470 kts | 85° |
| 2026-05-06 14:09 | 47.30434 | 16.66668 | 33797 ft | 467 kts | 85° |
| 2026-05-06 14:10 | 47.30775 | 16.71408 | 33237 ft | 463 kts | 85° |
| 2026-05-06 14:10 | 47.31110 | 16.76096 | 32738 ft | 458 kts | 85° |
| 2026-05-06 14:10 | 47.31446 | 16.80729 | 32240 ft | 453 kts | 85° |
| 2026-05-06 14:10 | 47.31764 | 16.85267 | 31751 ft | 448 kts | 85° |
| 2026-05-06 14:11 | 47.32094 | 16.89793 | 31249 ft | 443 kts | 85° |
| 2026-05-06 14:11 | 47.32419 | 16.94291 | 30745 ft | 438 kts | 85° |
| 2026-05-06 14:11 | 47.32735 | 16.98728 | 30246 ft | 433 kts | 86° |
| 2026-05-06 14:11 | 47.33040 | 17.03083 | 29757 ft | 429 kts | 86° |
| 2026-05-06 14:12 | 47.33343 | 17.07469 | 29251 ft | 424 kts | 86° |
| 2026-05-06 14:12 | 47.33639 | 17.11783 | 28732 ft | 421 kts | 86° |
| 2026-05-06 14:12 | 47.33934 | 17.16051 | 28228 ft | 417 kts | 86° |
| 2026-05-06 14:12 | 47.34224 | 17.20275 | 27719 ft | 413 kts | 86° |
| 2026-05-06 14:13 | 47.34511 | 17.24478 | 27211 ft | 410 kts | 86° |
| 2026-05-06 14:13 | 47.34794 | 17.28634 | 26723 ft | 406 kts | 86° |
| 2026-05-06 14:13 | 47.35070 | 17.32748 | 26222 ft | 402 kts | 86° |
| 2026-05-06 14:13 | 47.35335 | 17.36837 | 25719 ft | 398 kts | 85° |
| 2026-05-06 14:14 | 47.35599 | 17.40876 | 25228 ft | 394 kts | 85° |
| 2026-05-06 14:14 | 47.35860 | 17.44884 | 24731 ft | 390 kts | 85° |
| 2026-05-06 14:14 | 47.36128 | 17.48847 | 24245 ft | 387 kts | 85° |
| 2026-05-06 14:14 | 47.36394 | 17.52777 | 23756 ft | 384 kts | 85° |
| 2026-05-06 14:15 | 47.36653 | 17.56683 | 23254 ft | 381 kts | 85° |
| 2026-05-06 14:15 | 47.36894 | 17.60551 | 22790 ft | 377 kts | 86° |
| 2026-05-06 14:15 | 47.37128 | 17.64382 | 22323 ft | 374 kts | 86° |
| 2026-05-06 14:15 | 47.37365 | 17.68185 | 21849 ft | 370 kts | 86° |
| 2026-05-06 14:16 | 47.37609 | 17.71939 | 21387 ft | 367 kts | 86° |
| 2026-05-06 14:16 | 47.37856 | 17.75685 | 20908 ft | 364 kts | 86° |
| 2026-05-06 14:16 | 47.38096 | 17.79394 | 20450 ft | 361 kts | 86° |
| 2026-05-06 14:16 | 47.38328 | 17.83063 | 19984 ft | 358 kts | 86° |
| 2026-05-06 14:17 | 47.38461 | 17.86705 | 19506 ft | 354 kts | 93° |
| 2026-05-06 14:17 | 47.38407 | 17.90312 | 19032 ft | 350 kts | 94° |
| 2026-05-06 14:17 | 47.38319 | 17.93896 | 18558 ft | 348 kts | 95° |
| 2026-05-06 14:17 | 47.38225 | 17.97436 | 18103 ft | 345 kts | 95° |
| 2026-05-06 14:18 | 47.38140 | 18.00967 | 17641 ft | 342 kts | 95° |
| 2026-05-06 14:18 | 47.38050 | 18.04454 | 17179 ft | 339 kts | 95° |
| 2026-05-06 14:18 | 47.37982 | 18.07925 | 16705 ft | 337 kts | 94° |
| 2026-05-06 14:18 | 47.37908 | 18.11367 | 16245 ft | 335 kts | 95° |
| 2026-05-06 14:19 | 47.37828 | 18.14796 | 15777 ft | 333 kts | 95° |
| 2026-05-06 14:19 | 47.37757 | 18.18196 | 15316 ft | 331 kts | 94° |
| 2026-05-06 14:19 | 47.37683 | 18.21578 | 14843 ft | 329 kts | 94° |
| 2026-05-06 14:19 | 47.37602 | 18.24940 | 14391 ft | 327 kts | 95° |
| 2026-05-06 14:20 | 47.37566 | 18.28278 | 13918 ft | 326 kts | 88° |
| 2026-05-06 14:20 | 47.37961 | 18.31581 | 13453 ft | 326 kts | 78° |
| 2026-05-06 14:20 | 47.38519 | 18.34815 | 12989 ft | 325 kts | 73° |
| 2026-05-06 14:20 | 47.39358 | 18.37906 | 12535 ft | 324 kts | 67° |
| 2026-05-06 14:21 | 47.40283 | 18.40920 | 12067 ft | 322 kts | 67° |
| 2026-05-06 14:21 | 47.41190 | 18.43933 | 11634 ft | 319 kts | 67° |
| 2026-05-06 14:21 | 47.42089 | 18.46912 | 11213 ft | 316 kts | 68° |
| 2026-05-06 14:21 | 47.42965 | 18.49884 | 10784 ft | 314 kts | 68° |
| 2026-05-06 14:22 | 47.43824 | 18.52834 | 10350 ft | 312 kts | 68° |
| 2026-05-06 14:22 | 47.44683 | 18.55766 | 9916 ft | 310 kts | 68° |
| 2026-05-06 14:22 | 47.45538 | 18.58688 | 9472 ft | 309 kts | 68° |
| 2026-05-06 14:22 | 47.46382 | 18.61579 | 9049 ft | 307 kts | 69° |
| 2026-05-06 14:23 | 47.47205 | 18.64446 | 8630 ft | 305 kts | 69° |
| 2026-05-06 14:23 | 47.48057 | 18.67351 | 8194 ft | 303 kts | 69° |
| 2026-05-06 14:23 | 47.48877 | 18.70153 | 7748 ft | 300 kts | 69° |
| 2026-05-06 14:23 | 47.49700 | 18.72991 | 7325 ft | 299 kts | 69° |
| 2026-05-06 14:24 | 47.50511 | 18.75803 | 6923 ft | 297 kts | 69° |
| 2026-05-06 14:24 | 47.51323 | 18.78597 | 6521 ft | 295 kts | 69° |
| 2026-05-06 14:24 | 47.52128 | 18.81377 | 6121 ft | 293 kts | 69° |
| 2026-05-06 14:24 | 47.52920 | 18.84120 | 5867 ft | 286 kts | 69° |
| 2026-05-06 14:25 | 47.53681 | 18.86777 | 5686 ft | 276 kts | 69° |
| 2026-05-06 14:25 | 47.54607 | 18.89209 | 5448 ft | 271 kts | 51° |
| 2026-05-06 14:25 | 47.55952 | 18.91152 | 5102 ft | 269 kts | 43° |
| 2026-05-06 14:25 | 47.57357 | 18.92984 | 4726 ft | 268 kts | 42° |
| 2026-05-06 14:26 | 47.58677 | 18.94901 | 4323 ft | 263 kts | 56° |
| 2026-05-06 14:26 | 47.59283 | 18.97312 | 4029 ft | 243 kts | 94° |
| 2026-05-06 14:26 | 47.58879 | 18.99540 | 3967 ft | 213 kts | 127° |
| 2026-05-06 14:26 | 47.58011 | 19.01142 | 3979 ft | 187 kts | 139° |
| 2026-05-06 14:27 | 47.57073 | 19.02486 | 3927 ft | 188 kts | 141° |
| 2026-05-06 14:27 | 47.56143 | 19.03836 | 3719 ft | 188 kts | 139° |
| 2026-05-06 14:27 | 47.55251 | 19.05254 | 3473 ft | 188 kts | 137° |
| 2026-05-06 14:27 | 47.54423 | 19.06591 | 3246 ft | 187 kts | 137° |
| 2026-05-06 14:28 | 47.53554 | 19.08001 | 2987 ft | 186 kts | 137° |
| 2026-05-06 14:28 | 47.52687 | 19.09408 | 2734 ft | 181 kts | 137° |
| 2026-05-06 14:28 | 47.51850 | 19.10765 | 2490 ft | 176 kts | 137° |
| 2026-05-06 14:28 | 47.51038 | 19.12082 | 2253 ft | 171 kts | 137° |
| 2026-05-06 14:29 | 47.50259 | 19.13344 | 2033 ft | 160 kts | 137° |
| 2026-05-06 14:29 | 47.49521 | 19.14540 | 1844 ft | 157 kts | 137° |
| 2026-05-06 14:29 | 47.48784 | 19.15733 | 1637 ft | 157 kts | 137° |
| 2026-05-06 14:29 | 47.48051 | 19.16920 | 1427 ft | 156 kts | 137° |
| 2026-05-06 14:30 | 47.47318 | 19.18106 | 1215 ft | 156 kts | 137° |
| 2026-05-06 14:30 | 47.46587 | 19.19291 | 995 ft | 156 kts | 137° |
| 2026-05-06 14:30 | 47.45857 | 19.20472 | 814 ft | 155 kts | 136° |
| 2026-05-06 14:30 | 47.45136 | 19.21654 | 590 ft | 154 kts | 136° |
| 2026-05-06 14:31 | 47.44370 | 19.22893 | 1021 ft | 174 kts | 136° |
| 2026-05-06 14:31 | 47.43553 | 19.24195 | 1829 ft | 173 kts | 138° |
| 2026-05-06 14:31 | 47.42725 | 19.25505 | 2451 ft | 182 kts | 138° |
| 2026-05-06 14:31 | 47.41781 | 19.27000 | 2793 ft | 213 kts | 138° |
| 2026-05-06 14:32 | 47.40725 | 19.28701 | 2922 ft | 229 kts | 136° |
| 2026-05-06 14:32 | 47.39655 | 19.30339 | 2967 ft | 226 kts | 148° |
| 2026-05-06 14:32 | 47.38714 | 19.30973 | 2980 ft | 220 kts | 173° |
| 2026-05-06 14:32 | 47.37590 | 19.31078 | 3018 ft | 218 kts | 184° |
| 2026-05-06 14:33 | 47.36024 | 19.30961 | 3030 ft | 218 kts | 185° |
| 2026-05-06 14:33 | 47.34522 | 19.30766 | 3004 ft | 215 kts | 194° |
| 2026-05-06 14:33 | 47.33187 | 19.29906 | 3029 ft | 213 kts | 218° |
| 2026-05-06 14:33 | 47.32224 | 19.28208 | 3629 ft | 226 kts | 242° |
| 2026-05-06 14:34 | 47.31838 | 19.25909 | 4342 ft | 238 kts | 267° |
| 2026-05-06 14:34 | 47.32236 | 19.23482 | 4793 ft | 248 kts | 295° |
| 2026-05-06 14:34 | 47.33314 | 19.21460 | 4963 ft | 254 kts | 310° |
| 2026-05-06 14:34 | 47.34563 | 19.19604 | 5007 ft | 254 kts | 310° |
| 2026-05-06 14:35 | 47.35803 | 19.17750 | 5005 ft | 254 kts | 310° |
| 2026-05-06 14:35 | 47.37030 | 19.15882 | 5003 ft | 254 kts | 310° |
| 2026-05-06 14:35 | 47.38233 | 19.14012 | 4999 ft | 254 kts | 309° |
| 2026-05-06 14:35 | 47.39460 | 19.12089 | 4993 ft | 254 kts | 309° |
| 2026-05-06 14:36 | 47.40664 | 19.10201 | 4986 ft | 254 kts | 309° |
| 2026-05-06 14:36 | 47.41876 | 19.08295 | 4986 ft | 254 kts | 309° |
| 2026-05-06 14:36 | 47.43083 | 19.06391 | 4990 ft | 254 kts | 309° |
| 2026-05-06 14:36 | 47.44283 | 19.04493 | 4988 ft | 253 kts | 309° |
| 2026-05-06 14:37 | 47.45234 | 19.02985 | 4991 ft | 254 kts | 309° |
| 2026-05-06 14:37 | 47.46438 | 19.01058 | 4992 ft | 254 kts | 309° |
| 2026-05-06 14:37 | 47.47636 | 18.99149 | 4994 ft | 254 kts | 309° |
| 2026-05-06 14:37 | 47.48840 | 18.97231 | 4986 ft | 254 kts | 309° |
| 2026-05-06 14:38 | 47.50037 | 18.95320 | 4985 ft | 254 kts | 309° |
| 2026-05-06 14:38 | 47.51237 | 18.93403 | 4988 ft | 254 kts | 308° |
| 2026-05-06 14:38 | 47.52492 | 18.91606 | 4994 ft | 257 kts | 321° |
| 2026-05-06 14:38 | 47.54184 | 18.90622 | 4976 ft | 265 kts | 353° |
| 2026-05-06 14:39 | 47.55972 | 18.91046 | 4980 ft | 268 kts | 25° |
| 2026-05-06 14:39 | 47.57490 | 18.92676 | 4965 ft | 265 kts | 44° |
| 2026-05-06 14:39 | 47.58670 | 18.94734 | 4588 ft | 261 kts | 64° |
| 2026-05-06 14:39 | 47.59107 | 18.97196 | 4182 ft | 256 kts | 95° |
| 2026-05-06 14:40 | 47.58655 | 18.99715 | 3992 ft | 242 kts | 124° |
| 2026-05-06 14:40 | 47.57709 | 19.01601 | 3958 ft | 222 kts | 137° |
| 2026-05-06 14:40 | 47.56982 | 19.02711 | 3902 ft | 206 kts | 140° |
| 2026-05-06 14:40 | 47.56002 | 19.04127 | 3791 ft | 193 kts | 140° |
| 2026-05-06 14:41 | 47.55064 | 19.05569 | 3513 ft | 189 kts | 137° |
| 2026-05-06 14:41 | 47.54183 | 19.06984 | 3216 ft | 185 kts | 137° |
| 2026-05-06 14:41 | 47.53324 | 19.08375 | 2942 ft | 181 kts | 137° |
| 2026-05-06 14:41 | 47.52489 | 19.09727 | 2692 ft | 176 kts | 137° |
| 2026-05-06 14:42 | 47.51671 | 19.11056 | 2451 ft | 172 kts | 138° |
| 2026-05-06 14:42 | 47.50880 | 19.12339 | 2213 ft | 164 kts | 137° |
| 2026-05-06 14:42 | 47.50138 | 19.13542 | 2013 ft | 155 kts | 138° |
| 2026-05-06 14:42 | 47.49409 | 19.14720 | 1803 ft | 155 kts | 137° |
| 2026-05-06 14:43 | 47.48684 | 19.15895 | 1605 ft | 155 kts | 137° |
| 2026-05-06 14:43 | 47.47960 | 19.17068 | 1397 ft | 155 kts | 137° |
| 2026-05-06 14:43 | 47.47233 | 19.18245 | 1187 ft | 155 kts | 137° |
| 2026-05-06 14:43 | 47.46509 | 19.19416 | 985 ft | 155 kts | 137° |
| 2026-05-06 14:44 | 47.45789 | 19.20589 | 801 ft | 154 kts | 136° |
| 2026-05-06 14:44 | 47.45072 | 19.21756 | 595 ft | 153 kts | 136° |
| 2026-05-06 14:44 | 47.44369 | 19.22896 | 458 ft | 141 kts | 133° |
| 2026-05-06 14:45 | 47.43379 | 19.24489 | 458 ft | 73 kts | 134° |
| 2026-05-06 14:45 | 47.43142 | 19.24877 | 460 ft | 23 kts | 135° |
| 2026-05-06 14:45 | 47.43093 | 19.25004 | 463 ft | 13 kts | 81° |
| 2026-05-06 14:45 | 47.43137 | 19.25111 | 463 ft | 12 kts | 43° |
| 2026-05-06 14:46 | 47.43201 | 19.25198 | 463 ft | 13 kts | 42° |
| 2026-05-06 14:46 | 47.43248 | 19.25261 | 461 ft | 14 kts | 42° |
| 2026-05-06 14:46 | 47.43326 | 19.25367 | 461 ft | 16 kts | 42° |
| 2026-05-06 14:46 | 47.43413 | 19.25483 | 461 ft | 18 kts | 41° |
| 2026-05-06 14:47 | 47.43508 | 19.25608 | 463 ft | 19 kts | 41° |
| 2026-05-06 14:47 | 47.43610 | 19.25743 | 463 ft | 20 kts | 43° |
| 2026-05-06 14:47 | 47.43708 | 19.25877 | 463 ft | 11 kts | 42° |
| 2026-05-06 14:47 | 47.43738 | 19.25958 | 463 ft | 8 kts | 108° |
| 2026-05-06 14:48 | 47.43699 | 19.26030 | 463 ft | 10 kts | 131° |
| 2026-05-06 14:48 | 47.43675 | 19.26133 | 460 ft | 12 kts | 86° |
| 2026-05-06 14:48 | 47.43679 | 19.26261 | 463 ft | 13 kts | 88° |
| 2026-05-06 14:48 | 47.43645 | 19.26382 | 461 ft | 14 kts | 133° |
| 2026-05-06 14:49 | 47.43578 | 19.26488 | 463 ft | 15 kts | 132° |
| 2026-05-06 14:49 | 47.43512 | 19.26597 | 460 ft | 10 kts | 132° |
| 2026-05-06 14:49 | 47.43477 | 19.26610 | 462 ft | 5 kts | 222° |
| 2026-05-06 14:49 | 47.43457 | 19.26583 | 463 ft | 3 kts | 222° |
| 2026-05-06 14:50 | 47.43452 | 19.26575 | 463 ft | 0 kts | 222° |